Time;durP1;ratioP1;P1;durP2;ratioP2;P2;SDS_P1;SDS_P2;PMS_P1;PMS_P2;Temp;Humidity;BMP_temperature;BMP_pressure;BME280_temperature;BME280_humidity;BME280_pressure;Samples;Min_cycle;Max_cycle;Signal;HPM_P1;HPM_P2
2023/01/09 00:01:20;;;;;;;89.38;59.05;;;179.70;2252.80;;;;;;5092483;28;20486;-58
2023/01/09 00:03:46;;;;;;;123.70;73.43;;;179.70;2252.80;;;;;;5092444;28;20028;-58
2023/01/09 00:06:12;;;;;;;119.55;66.03;;;179.60;2252.80;;;;;;5093171;28;20024;-57
2023/01/09 00:08:38;;;;;;;103.80;65.72;;;179.50;2252.80;;;;;;5092609;28;20016;-59
2023/01/09 00:11:04;;;;;;;79.53;47.33;;;179.50;2252.80;;;;;;5092666;28;20493;-57
2023/01/09 00:13:30;;;;;;;70.07;44.53;;;179.60;2252.80;;;;;;5092655;28;20016;-57
2023/01/09 00:15:55;;;;;;;41.10;26.90;;;179.80;2252.80;;;;;;5092357;28;20054;-58
2023/01/09 00:18:21;;;;;;;24.60;14.73;;;204.80;2252.80;;;;;;5092482;28;20020;-59
2023/01/09 00:20:47;;;;;;;25.63;16.67;;;205.30;2252.80;;;;;;5092386;28;20466;-58
2023/01/09 00:23:12;;;;;;;15.68;7.85;;;205.70;2252.80;;;;;;5092228;28;20024;-58
2023/01/09 00:25:39;;;;;;;23.13;11.95;;;230.70;2252.80;;;;;;5092241;28;20023;-58
2023/01/09 00:28:05;;;;;;;14.50;9.40;;;230.80;2252.80;;;;;;5092418;28;20042;-59
2023/01/09 00:30:31;;;;;;;15.95;10.40;;;231.00;2252.80;;;;;;5092507;28;20024;-55
2023/01/09 00:32:57;;;;;;;13.93;7.72;;;231.00;2252.80;;;;;;5091863;28;20059;-57
2023/01/09 00:35:24;;;;;;;12.05;7.50;;;231.10;2252.80;;;;;;5092103;28;20051;-58
2023/01/09 00:37:50;;;;;;;44.55;30.05;;;231.30;2252.80;;;;;;5092174;28;20077;-58
2023/01/09 00:40:17;;;;;;;24.95;14.98;;;231.20;2252.80;;;;;;5091806;28;20024;-58
2023/01/09 00:42:48;;;;;;;30.42;17.83;;;231.30;2252.80;;;;;;5091736;28;20032;-58
2023/01/09 00:45:20;;;;;;;38.88;26.40;;;256.20;2252.80;;;;;;5091685;28;20016;-59
2023/01/09 00:47:50;;;;;;;11.85;6.72;;;231.30;2252.80;;;;;;5090933;28;20032;-59
2023/01/09 00:50:22;;;;;;;16.05;9.27;;;256.20;2252.80;;;;;;5093461;28;20031;-59
2023/01/09 00:52:49;;;;;;;35.67;23.70;;;256.30;2252.80;;;;;;5093460;28;20032;-60
2023/01/09 00:55:16;;;;;;;10.18;6.85;;;256.20;2252.80;;;;;;5093069;28;20032;-59
2023/01/09 00:57:42;;;;;;;18.13;9.57;;;256.20;2252.80;;;;;;5093280;28;20484;-58
2023/01/09 01:00:09;;;;;;;9.38;6.32;;;256.30;2252.80;;;;;;5093247;28;20028;-59
2023/01/09 01:02:34;;;;;;;14.85;8.05;;;256.30;2252.80;;;;;;5092980;28;20114;-59
2023/01/09 01:07:44;;;;;;;10.93;7.43;;;256.50;2252.80;;;;;;5093063;28;20039;-59
2023/01/09 01:10:19;;;;;;;24.15;14.43;;;256.20;2252.80;;;;;;5091717;28;20028;-59
2023/01/09 01:12:45;;;;;;;34.28;23.13;;;231.30;2252.80;;;;;;5092631;28;20040;-59
2023/01/09 01:15:11;;;;;;;13.38;7.93;;;231.20;2252.80;;;;;;5092923;28;20024;-58
2023/01/09 01:17:39;;;;;;;15.30;10.38;;;231.00;2252.80;;;;;;5093095;28;20040;-59
2023/01/09 01:20:07;;;;;;;24.02;15.77;;;231.10;2252.80;;;;;;5092704;28;20028;-59
2023/01/09 01:22:33;;;;;;;23.17;16.55;;;231.20;2252.80;;;;;;5093445;28;20036;-60
2023/01/09 01:24:59;;;;;;;27.25;17.23;;;231.10;2252.80;;;;;;5096455;28;20081;-61
2023/01/09 01:27:26;;;;;;;85.70;57.92;;;231.00;2252.80;;;;;;5096673;28;20018;-63
2023/01/09 01:29:52;;;;;;;58.97;40.75;;;205.50;2252.80;;;;;;5096508;28;20031;-62
2023/01/09 01:32:17;;;;;;;49.60;32.63;;;205.10;2252.80;;;;;;5098069;28;20028;-59
2023/01/09 01:34:43;;;;;;;43.75;30.00;;;205.00;2252.80;;;;;;5092456;28;20016;-59
2023/01/09 01:37:09;;;;;;;43.72;29.15;;;205.20;2252.80;;;;;;5092512;28;20024;-60
2023/01/09 01:39:35;;;;;;;73.47;47.13;;;205.30;2252.80;;;;;;5092386;28;20045;-59
2023/01/09 01:42:03;;;;;;;131.90;69.97;;;205.20;2252.80;;;;;;5092519;28;20047;-59
2023/01/09 01:44:53;;;;;;;86.45;44.90;;;205.20;2252.80;;;;;;5092592;28;20027;-59
2023/01/09 01:47:22;;;;;;;23.27;13.85;;;205.30;2252.80;;;;;;5092355;28;20105;-58
2023/01/09 01:49:48;;;;;;;21.17;10.18;;;205.60;2252.80;;;;;;5092423;28;20494;-58
2023/01/09 01:52:16;;;;;;;9.65;7.18;;;230.40;2252.80;;;;;;5092110;28;20108;-58
2023/01/09 01:54:42;;;;;;;11.75;8.10;;;230.60;2252.80;;;;;;5092205;28;20027;-59
2023/01/09 01:57:09;;;;;;;11.13;8.25;;;230.70;2252.80;;;;;;5092418;28;20020;-60
2023/01/09 01:59:48;;;;;;;14.02;8.18;;;230.80;2252.80;;;;;;5092252;28;20101;-59
2023/01/09 02:02:19;;;;;;;12.68;8.57;;;230.90;2252.80;;;;;;5092025;28;20039;-59
2023/01/09 02:04:46;;;;;;;13.38;9.73;;;230.90;2252.80;;;;;;5091659;28;20060;-59
2023/01/09 02:07:12;;;;;;;20.92;10.77;;;231.00;2252.80;;;;;;5091894;28;20043;-58
2023/01/09 02:09:40;;;;;;;21.08;13.05;;;231.00;2252.80;;;;;;5092008;28;20031;-59
2023/01/09 02:12:17;;;;;;;16.63;11.65;;;230.90;2252.80;;;;;;5091955;28;20024;-60
2023/01/09 02:14:44;;;;;;;18.38;13.10;;;230.90;2252.80;;;;;;5091824;28;20403;-59
2023/01/09 02:17:39;;;;;;;25.95;13.13;;;230.80;2252.80;;;;;;5091888;28;20103;-60
2023/01/09 02:20:11;;;;;;;25.67;14.68;;;230.80;2252.80;;;;;;5091612;28;20545;-59
2023/01/09 02:22:55;;;;;;;21.48;12.18;;;230.70;2252.80;;;;;;5091269;28;20417;-58
2023/01/09 02:25:41;;;;;;;19.30;11.07;;;230.80;2252.80;;;;;;5091991;28;20475;-59
2023/01/09 02:28:36;;;;;;;17.70;9.73;;;230.80;2252.80;;;;;;5091403;28;20024;-59
2023/01/09 02:31:17;;;;;;;103.85;72.82;;;230.80;2252.80;;;;;;5090991;28;20107;-60
2023/01/09 02:34:30;;;;;;;130.23;84.90;;;205.40;2252.80;;;;;;5091223;28;20058;-58
2023/01/09 02:37:34;;;;;;;102.90;65.20;;;180.10;2252.80;;;;;;5009295;28;20108;-58
2023/01/09 02:40:15;;;;;;;120.72;72.60;;;180.10;2252.80;;;;;;4986017;28;20042;-58
2023/01/09 02:42:42;;;;;;;35.50;24.13;;;180.00;2252.80;;;;;;5009177;28;20041;-58
2023/01/09 02:45:08;;;;;;;31.75;18.45;;;204.90;2252.80;;;;;;5009083;28;20088;-59
2023/01/09 02:47:35;;;;;;;23.35;13.95;;;205.10;2252.80;;;;;;5009135;28;20405;-58
2023/01/09 02:50:04;;;;;;;18.40;11.48;;;205.40;2252.80;;;;;;5009319;28;20105;-57
2023/01/09 02:52:44;;;;;;;16.70;11.27;;;205.60;2252.80;;;;;;5009288;28;20034;-58
2023/01/09 02:55:30;;;;;;;33.17;17.67;;;205.70;2252.80;;;;;;5009131;28;20098;-59
2023/01/09 02:58:05;;;;;;;37.88;19.83;;;230.40;2252.80;;;;;;5008980;28;20029;-58
2023/01/09 03:00:59;;;;;;;20.65;13.23;;;230.40;2252.80;;;;;;5009031;28;20034;-58
2023/01/09 03:03:28;;;;;;;40.30;23.50;;;230.50;2252.80;;;;;;4930999;29;20043;-58
2023/01/09 03:06:17;;;;;;;42.42;23.88;;;230.40;2252.80;;;;;;4931159;29;20471;-59
2023/01/09 03:08:49;;;;;;;23.48;15.43;;;230.50;2252.80;;;;;;5007678;28;20085;-59
2023/01/09 03:11:14;;;;;;;32.00;21.73;;;230.60;2252.80;;;;;;5008696;28;20057;-59
2023/01/09 03:13:56;;;;;;;26.50;18.98;;;205.20;2252.80;;;;;;5008737;28;20099;-59
2023/01/09 03:16:32;;;;;;;27.40;18.00;;;204.80;2252.80;;;;;;5008647;28;20033;-58
2023/01/09 03:19:00;;;;;;;16.40;10.18;;;204.80;2252.80;;;;;;5008735;28;20527;-58
2023/01/09 03:21:26;;;;;;;39.35;24.60;;;205.10;2252.80;;;;;;5008335;28;20125;-59
2023/01/09 03:23:57;;;;;;;22.35;12.65;;;205.20;2252.80;;;;;;5008525;28;20058;-59
2023/01/09 03:26:23;;;;;;;25.80;18.88;;;205.30;2252.80;;;;;;5008412;28;20104;-59
2023/01/09 03:28:50;;;;;;;30.25;16.55;;;205.30;2252.80;;;;;;5008408;28;20104;-59
2023/01/09 03:31:16;;;;;;;19.77;13.43;;;205.30;2252.80;;;;;;5008268;28;20026;-58
2023/01/09 03:33:42;;;;;;;35.25;22.48;;;205.60;2252.80;;;;;;5007850;28;20451;-60
2023/01/09 03:36:10;;;;;;;33.08;21.63;;;205.40;2252.80;;;;;;5008535;28;20089;-60
2023/01/09 03:38:36;;;;;;;34.13;24.05;;;204.80;2252.80;;;;;;5008172;28;20033;-60
2023/01/09 03:41:02;;;;;;;32.85;21.55;;;179.90;2252.80;;;;;;5072230;28;20387;-59
2023/01/09 03:43:28;;;;;;;49.97;31.20;;;179.70;2252.80;;;;;;5090316;28;20032;-60
2023/01/09 03:45:53;;;;;;;24.58;16.58;;;179.60;2252.80;;;;;;5089934;28;20194;-59
2023/01/09 03:48:19;;;;;;;25.20;15.90;;;179.70;2252.80;;;;;;5090448;28;20421;-58
2023/01/09 03:50:48;;;;;;;27.90;17.50;;;179.80;2252.80;;;;;;5090154;28;20092;-59
2023/01/09 03:53:14;;;;;;;28.10;17.92;;;180.00;2252.80;;;;;;5090124;28;20032;-60
2023/01/09 03:55:44;;;;;;;25.48;16.00;;;179.90;2252.80;;;;;;5090379;28;20024;-59
2023/01/09 03:58:10;;;;;;;26.15;16.88;;;180.00;2252.80;;;;;;5090225;28;20028;-60
2023/01/09 04:00:38;;;;;;;33.10;21.02;;;180.00;2252.80;;;;;;5089726;28;20078;-59
2023/01/09 04:03:03;;;;;;;29.52;19.02;;;180.10;2252.80;;;;;;5090060;28;20416;-59
2023/01/09 04:05:29;;;;;;;25.67;18.63;;;179.70;2252.80;;;;;;5090218;28;20082;-59
2023/01/09 04:07:55;;;;;;;38.13;24.67;;;179.70;2252.80;;;;;;5090071;28;20402;-58
2023/01/09 04:10:21;;;;;;;42.88;26.83;;;179.70;2252.80;;;;;;5089966;28;20152;-58
2023/01/09 04:12:46;;;;;;;39.42;25.02;;;179.60;2252.80;;;;;;5089654;28;20032;-58
2023/01/09 04:15:12;;;;;;;36.35;23.27;;;179.70;2252.80;;;;;;5089864;28;20028;-59
2023/01/09 04:17:38;;;;;;;49.90;25.25;;;179.70;2252.80;;;;;;5089895;28;20461;-60
2023/01/09 04:20:04;;;;;;;32.00;20.73;;;179.80;2252.80;;;;;;5090125;28;20020;-59
2023/01/09 04:22:30;;;;;;;20.10;12.55;;;204.80;2252.80;;;;;;5089782;28;20478;-58
2023/01/09 04:24:56;;;;;;;11.48;6.78;;;205.10;2252.80;;;;;;5089631;28;20478;-58
2023/01/09 04:27:22;;;;;;;12.45;7.20;;;205.50;2252.80;;;;;;5089981;28;20035;-58
2023/01/09 04:29:47;;;;;;;10.25;7.85;;;230.50;2252.80;;;;;;5089776;28;20020;-58
2023/01/09 04:32:13;;;;;;;12.75;8.13;;;230.70;2252.80;;;;;;5089595;28;20082;-59
2023/01/09 04:34:39;;;;;;;33.53;21.55;;;230.80;2252.80;;;;;;5090005;28;20028;-60
2023/01/09 04:37:05;;;;;;;42.05;26.45;;;230.70;2252.80;;;;;;5089649;28;20050;-58
2023/01/09 04:39:30;;;;;;;23.60;16.92;;;230.70;2252.80;;;;;;5089155;28;20024;-61
2023/01/09 04:41:56;;;;;;;12.77;8.20;;;230.60;2252.80;;;;;;5089373;28;20040;-57
2023/01/09 04:44:26;;;;;;;16.13;7.70;;;230.80;2252.80;;;;;;5091364;28;20016;-57
2023/01/09 04:46:53;;;;;;;16.38;11.93;;;231.20;2252.80;;;;;;5093472;28;20138;-57
2023/01/09 04:49:20;;;;;;;12.65;9.45;;;256.10;2252.80;;;;;;5093417;28;20545;-58
2023/01/09 04:51:45;;;;;;;16.45;10.32;;;256.20;2252.80;;;;;;5093453;28;20070;-58
2023/01/09 04:54:11;;;;;;;13.73;10.20;;;256.20;2252.80;;;;;;5093651;28;20040;-58
2023/01/09 04:56:37;;;;;;;14.10;10.02;;;256.30;2252.80;;;;;;5093134;28;20354;-58
2023/01/09 04:59:04;;;;;;;9.38;6.75;;;256.30;2252.80;;;;;;5093278;28;20056;-58
2023/01/09 05:01:30;;;;;;;16.38;10.52;;;256.30;2252.80;;;;;;5093141;28;20374;-58
2023/01/09 05:03:56;;;;;;;99.45;63.60;;;256.30;2252.80;;;;;;5092849;28;20122;-58
2023/01/09 05:06:21;;;;;;;28.45;19.48;;;231.00;2252.80;;;;;;5093301;28;20025;-57
2023/01/09 05:08:47;;;;;;;28.10;20.17;;;231.00;2252.80;;;;;;5093213;28;20028;-58
2023/01/09 05:11:13;;;;;;;24.83;18.20;;;231.00;2252.80;;;;;;5092608;28;20390;-58
2023/01/09 05:13:39;;;;;;;21.60;16.73;;;231.10;2252.80;;;;;;5093055;28;20024;-58
2023/01/09 05:16:05;;;;;;;20.92;15.30;;;231.30;2252.80;;;;;;5092912;28;20109;-62
2023/01/09 05:18:31;;;;;;;21.33;13.00;;;231.30;2252.80;;;;;;5092949;28;20110;-60
2023/01/09 05:20:57;;;;;;;17.90;12.07;;;256.00;2252.80;;;;;;5092762;28;20056;-58
2023/01/09 05:23:22;;;;;;;18.23;13.38;;;256.10;2252.80;;;;;;5092742;28;20054;-59
2023/01/09 05:25:48;;;;;;;19.63;13.85;;;256.00;2252.80;;;;;;5092883;28;20013;-58
2023/01/09 05:28:14;;;;;;;76.30;52.63;;;256.10;2252.80;;;;;;5092610;28;20411;-58
2023/01/09 05:30:39;;;;;;;61.95;39.60;;;205.60;2252.80;;;;;;5092711;28;20089;-58
2023/01/09 05:33:05;;;;;;;54.78;34.65;;;205.20;2252.80;;;;;;5092512;28;20144;-57
2023/01/09 05:35:31;;;;;;;71.38;30.95;;;205.20;2252.80;;;;;;5092732;28;20042;-62
2023/01/09 05:37:57;;;;;;;43.92;23.75;;;205.50;2252.80;;;;;;5092323;28;20046;-57
2023/01/09 05:40:22;;;;;;;24.17;13.55;;;230.40;2252.80;;;;;;5092292;28;20075;-59
2023/01/09 05:42:48;;;;;;;22.08;14.40;;;230.50;2252.80;;;;;;5092513;28;20098;-57
2023/01/09 05:45:14;;;;;;;65.05;44.33;;;230.80;2252.80;;;;;;5092005;28;20451;-58
2023/01/09 05:47:42;;;;;;;42.15;27.48;;;230.70;2252.80;;;;;;5092418;28;20024;-57
2023/01/09 05:50:08;;;;;;;32.75;19.17;;;230.40;2252.80;;;;;;5092136;28;20048;-57
2023/01/09 05:52:34;;;;;;;27.20;17.90;;;230.60;2252.80;;;;;;5092395;28;20020;-58
2023/01/09 05:55:00;;;;;;;28.17;17.10;;;230.70;2252.80;;;;;;5092490;28;20031;-62
2023/01/09 05:57:27;;;;;;;43.17;21.33;;;230.70;2252.80;;;;;;5091533;28;20063;-57
2023/01/09 05:59:53;;;;;;;29.40;17.73;;;230.80;2252.80;;;;;;5091968;28;20375;-58
2023/01/09 06:02:19;;;;;;;56.05;38.13;;;230.80;2252.80;;;;;;5092008;28;20046;-58
2023/01/09 06:04:44;;;;;;;73.90;49.22;;;205.70;2252.80;;;;;;5091783;28;20385;-57
2023/01/09 06:07:10;;;;;;;59.70;38.15;;;204.90;2252.80;;;;;;5091873;28;20378;-57
2023/01/09 06:09:36;;;;;;;51.08;28.67;;;204.90;2252.80;;;;;;5091893;28;20051;-57
2023/01/09 06:12:02;;;;;;;35.80;21.45;;;205.10;2252.80;;;;;;5092226;28;20074;-60
2023/01/09 06:14:28;;;;;;;46.80;30.33;;;205.40;2252.80;;;;;;5091695;28;20024;-58
2023/01/09 06:16:54;;;;;;;83.35;52.55;;;205.60;2252.80;;;;;;5091707;28;20070;-57
2023/01/09 06:19:20;;;;;;;119.15;75.65;;;205.20;2252.80;;;;;;5091733;28;20048;-57
2023/01/09 06:21:46;;;;;;;121.75;82.53;;;205.30;2252.80;;;;;;5091640;28;20126;-57
2023/01/09 06:24:11;;;;;;;88.47;57.28;;;205.20;2252.80;;;;;;5092074;28;20032;-60
2023/01/09 06:26:37;;;;;;;105.60;66.93;;;180.00;2252.80;;;;;;5091546;28;20020;-57
2023/01/09 06:29:03;;;;;;;77.05;48.53;;;179.70;2252.80;;;;;;5091356;28;20024;-57
2023/01/09 06:31:29;;;;;;;599.45;431.38;;;179.70;2252.80;;;;;;5091613;28;20028;-58
2023/01/09 06:33:54;;;;;;;240.63;179.45;;;179.70;2252.80;;;;;;5091267;28;20044;-56
2023/01/09 06:36:20;;;;;;;115.50;80.05;;;179.70;2252.80;;;;;;5091340;28;20028;-56
2023/01/09 06:38:46;;;;;;;59.67;38.30;;;179.90;2252.80;;;;;;5091346;28;20394;-57
2023/01/09 06:41:12;;;;;;;38.70;27.27;;;180.10;2252.80;;;;;;5091194;28;20032;-56
2023/01/09 06:43:38;;;;;;;50.80;31.42;;;204.90;2252.80;;;;;;5092078;28;20097;-55
2023/01/09 06:46:06;;;;;;;50.80;31.27;;;205.20;2252.80;;;;;;5091028;28;20048;-57
2023/01/09 06:48:32;;;;;;;44.25;28.92;;;205.30;2252.80;;;;;;5091101;28;20035;-61
2023/01/09 06:50:58;;;;;;;39.33;24.88;;;205.50;2252.80;;;;;;5091131;28;20024;-56
2023/01/09 06:53:24;;;;;;;66.63;41.45;;;205.60;2252.80;;;;;;5090914;28;20489;-56
2023/01/09 06:55:50;;;;;;;73.65;47.25;;;205.60;2252.80;;;;;;5090999;28;20028;-57
2023/01/09 06:58:17;;;;;;;77.65;52.22;;;205.30;2252.80;;;;;;5090843;28;20039;-57
2023/01/09 07:00:43;;;;;;;63.53;44.22;;;205.10;2252.80;;;;;;5091055;28;20351;-61
2023/01/09 07:03:10;;;;;;;71.25;49.35;;;204.90;2252.80;;;;;;5090610;28;20478;-56
2023/01/09 07:05:41;;;;;;;67.57;45.03;;;204.90;2252.80;;;;;;5090736;28;20024;-61
2023/01/09 07:08:08;;;;;;;43.88;30.38;;;204.90;2252.80;;;;;;5089853;28;20397;-55
2023/01/09 07:10:34;;;;;;;74.10;47.53;;;205.20;2252.80;;;;;;5090507;28;20111;-57
2023/01/09 07:13:00;;;;;;;74.97;46.15;;;205.30;2252.80;;;;;;5090643;28;20024;-57
2023/01/09 07:15:25;;;;;;;63.10;39.70;;;205.40;2252.80;;;;;;5090590;28;20122;-60
2023/01/09 07:17:52;;;;;;;51.20;33.25;;;205.50;2252.80;;;;;;5090708;28;20024;-59
2023/01/09 07:20:18;;;;;;;44.70;30.58;;;205.50;2252.80;;;;;;5090655;28;20031;-58
2023/01/09 07:22:45;;;;;;;48.78;32.72;;;205.70;2252.80;;;;;;5090582;28;20040;-60
2023/01/09 07:25:11;;;;;;;56.15;34.38;;;230.40;2252.80;;;;;;5090747;28;20023;-56
2023/01/09 07:27:36;;;;;;;47.58;31.75;;;230.50;2252.80;;;;;;5090566;28;20028;-58
2023/01/09 07:30:03;;;;;;;67.63;47.60;;;230.60;2252.80;;;;;;5090759;28;20012;-59
2023/01/09 07:32:29;;;;;;;82.05;54.47;;;230.60;2252.80;;;;;;5090494;28;20110;-56
2023/01/09 07:34:55;;;;;;;50.30;34.53;;;230.60;2252.80;;;;;;5090122;28;20100;-57
2023/01/09 07:37:20;;;;;;;46.30;32.80;;;230.70;2252.80;;;;;;5090458;28;20044;-57
2023/01/09 07:39:46;;;;;;;37.38;26.40;;;230.70;2252.80;;;;;;5090164;28;20445;-57
2023/01/09 07:42:12;;;;;;;46.38;31.05;;;230.80;2252.80;;;;;;5090299;28;20059;-57
2023/01/09 07:44:38;;;;;;;66.22;41.65;;;230.80;2252.80;;;;;;5090434;28;20045;-57
2023/01/09 07:47:03;;;;;;;77.35;51.30;;;230.90;2252.80;;;;;;5090044;28;20048;-57
2023/01/09 07:49:29;;;;;;;77.18;49.92;;;230.90;2252.80;;;;;;5090413;28;20436;-60
2023/01/09 07:51:55;;;;;;;77.03;48.60;;;231.00;2252.80;;;;;;5090010;28;20410;-57
2023/01/09 07:54:21;;;;;;;56.92;36.90;;;231.00;2252.80;;;;;;5090289;28;20458;-57
2023/01/09 07:56:47;;;;;;;37.08;26.02;;;231.10;2252.80;;;;;;5090012;28;20028;-57
2023/01/09 07:59:12;;;;;;;33.97;23.23;;;231.00;2252.80;;;;;;5090288;28;20020;-57
2023/01/09 08:01:38;;;;;;;43.67;29.30;;;231.00;2252.80;;;;;;5090289;28;20435;-59
2023/01/09 08:04:04;;;;;;;33.55;24.65;;;231.10;2252.80;;;;;;5090242;28;20466;-57
2023/01/09 08:06:30;;;;;;;43.17;29.63;;;231.10;2252.80;;;;;;5089970;28;20461;-57
2023/01/09 08:08:57;;;;;;;41.72;28.90;;;231.20;2252.80;;;;;;5089781;28;20036;-57
2023/01/09 08:11:23;;;;;;;43.15;31.90;;;231.10;2252.80;;;;;;5089800;28;20111;-57
2023/01/09 08:13:49;;;;;;;48.88;33.25;;;231.10;2252.80;;;;;;5090167;28;20469;-60
2023/01/09 08:16:15;;;;;;;72.00;46.47;;;231.10;2252.80;;;;;;5089750;28;20028;-57
2023/01/09 08:18:41;;;;;;;77.60;52.80;;;231.10;2252.80;;;;;;5090472;28;20020;-57
2023/01/09 08:21:06;;;;;;;71.03;47.05;;;231.00;2252.80;;;;;;5093703;28;20076;-57
2023/01/09 08:23:32;;;;;;;77.45;45.47;;;231.10;2252.80;;;;;;5094016;28;20040;-57
2023/01/09 08:25:58;;;;;;;72.55;41.92;;;231.00;2252.80;;;;;;5093796;28;20027;-57
2023/01/09 08:28:23;;;;;;;122.60;73.43;;;230.90;2252.80;;;;;;5093866;28;20028;-57
2023/01/09 08:30:49;;;;;;;113.97;62.13;;;230.90;2252.80;;;;;;5093737;28;20373;-57
2023/01/09 08:33:15;;;;;;;61.45;40.70;;;230.90;2252.80;;;;;;5093655;28;20028;-57
2023/01/09 08:35:42;;;;;;;42.95;28.95;;;231.10;2252.80;;;;;;5093767;28;20031;-57
2023/01/09 08:38:08;;;;;;;46.83;30.65;;;231.20;2252.80;;;;;;5093811;28;20138;-57
2023/01/09 08:40:34;;;;;;;36.55;26.13;;;231.20;2252.80;;;;;;5093657;28;20111;-57
2023/01/09 08:48:45;;;;;;;120.13;77.63;;;231.20;2252.80;;;;;;5051137;28;20055;-57
2023/01/09 08:51:11;;;;;;;105.80;61.90;;;231.20;2252.80;;;;;;5051146;28;20525;-57
2023/01/09 08:53:36;;;;;;;39.65;24.35;;;231.30;2252.80;;;;;;5051091;28;20136;-57
2023/01/09 08:56:03;;;;;;;79.35;49.13;;;256.10;2252.80;;;;;;5051163;28;20034;-60
2023/01/09 08:58:29;;;;;;;97.40;68.32;;;256.30;2252.80;;;;;;5049584;28;20060;-55
2023/01/09 09:00:55;;;;;;;71.18;48.67;;;256.20;2252.80;;;;;;5043861;28;20032;-58
2023/01/09 09:03:21;;;;;;;40.05;32.08;;;256.10;2252.80;;;;;;5049213;28;20049;-57
2023/01/09 09:05:47;;;;;;;44.70;30.40;;;256.10;2252.80;;;;;;5049126;28;20479;-58
2023/01/09 09:08:14;;;;;;;53.50;37.70;;;256.20;2252.80;;;;;;5049066;28;20124;-57
2023/01/09 09:10:40;;;;;;;57.03;39.25;;;256.20;2252.80;;;;;;5049110;28;20075;-57
2023/01/09 09:13:06;;;;;;;48.83;31.75;;;256.10;2252.80;;;;;;5049150;28;20112;-58
2023/01/09 09:15:33;;;;;;;52.60;34.83;;;256.20;2252.80;;;;;;5048953;28;20128;-57
2023/01/09 09:18:03;;;;;;;33.55;20.95;;;256.40;2252.80;;;;;;5049194;28;20036;-60
2023/01/09 09:20:31;;;;;;;24.95;18.70;;;256.50;2252.80;;;;;;5049073;28;20025;-56
2023/01/09 09:22:58;;;;;;;27.33;18.85;;;256.50;2252.80;;;;;;5066886;28;20047;-56
2023/01/09 09:25:24;;;;;;;42.70;26.98;;;256.50;2252.80;;;;;;5091339;28;20019;-61
2023/01/09 09:27:50;;;;;;;48.88;29.98;;;256.80;2252.80;;;;;;5092223;28;20470;-58
2023/01/09 09:30:17;;;;;;;16.55;11.88;;;281.70;2278.40;;;;;;5089751;28;20034;-56
2023/01/09 09:32:43;;;;;;;24.73;18.35;;;282.10;2278.40;;;;;;5089819;28;20493;-58
2023/01/09 09:35:09;;;;;;;54.22;33.50;;;282.50;2278.40;;;;;;5089007;28;20024;-61
2023/01/09 09:37:35;;;;;;;30.50;22.35;;;282.50;2278.40;;;;;;5089970;28;20023;-56
2023/01/09 09:40:01;;;;;;;68.65;47.45;;;282.40;2278.40;;;;;;5089831;28;20111;-56
2023/01/09 09:45:47;;;;;;;91.65;60.67;;;282.30;2278.40;;;;;;5088484;28;20071;-61
2023/01/09 09:48:27;;;;;;;;;;;282.10;2278.40;;;;;;5089277;28;20028;-57
2023/01/09 09:51:02;;;;;;;60.92;38.53;;;282.10;2278.40;;;;;;5088847;28;19904;-57
2023/01/09 09:53:40;;;;;;;61.58;41.53;;;281.80;2278.40;;;;;;5089563;28;20024;-57
2023/01/09 09:56:10;;;;;;;65.38;42.53;;;281.70;2278.40;;;;;;5089379;28;20626;-56
2023/01/09 09:58:37;;;;;;;65.78;44.78;;;281.70;2278.40;;;;;;5089229;28;20042;-56
2023/01/09 10:01:04;;;;;;;66.03;49.45;;;281.80;2278.40;;;;;;5089399;28;20024;-58
2023/01/09 10:03:45;;;;;;;48.05;34.05;;;281.70;2278.40;;;;;;5088594;28;20040;-56
2023/01/09 10:06:18;;;;;;;68.88;47.30;;;281.70;2278.40;;;;;;5088529;28;20039;-58
2023/01/09 10:09:10;;;;;;;54.13;36.08;;;281.70;2278.40;;;;;;5088348;28;20039;-61
2023/01/09 10:12:02;;;;;;;44.90;28.45;;;281.70;2278.40;;;;;;5089037;28;20131;-58
2023/01/09 10:14:29;;;;;;;36.15;23.73;;;282.00;2278.40;;;;;;5088878;28;20107;-57
2023/01/09 10:17:17;;;;;;;39.47;28.48;;;281.70;2278.40;;;;;;5088884;28;20034;-57
2023/01/09 10:20:06;;;;;;;35.50;24.77;;;281.70;2278.40;;;;;;5088978;28;20027;-58
2023/01/09 10:23:06;;;;;;;71.53;45.97;;;281.70;2278.40;;;;;;5088390;28;20036;-60
2023/01/09 10:26:00;;;;;;;43.08;28.60;;;281.70;2278.40;;;;;;5088323;28;20486;-59
2023/01/09 10:28:46;;;;;;;48.45;34.60;;;281.70;2278.40;;;;;;5088957;28;20023;-57
2023/01/09 10:31:14;;;;;;;57.15;37.90;;;281.80;2278.40;;;;;;5088447;28;20051;-60
2023/01/09 10:34:02;;;;;;;85.30;62.45;;;281.80;2278.40;;;;;;5089029;28;20035;-62
2023/01/09 10:36:33;;;;;;;67.10;45.28;;;282.10;2278.40;;;;;;5088797;28;20031;-57
2023/01/09 10:39:03;;;;;;;76.90;48.58;;;282.10;2278.40;;;;;;5087032;28;20517;-63
2023/01/09 10:41:38;;;;;;;83.38;55.75;;;282.50;2278.40;;;;;;5087478;28;20074;-60
2023/01/09 10:44:19;;;;;;;60.97;43.13;;;282.40;2278.40;;;;;;5086729;28;20040;-62
2023/01/09 10:46:54;;;;;;;115.80;79.20;;;282.10;2278.40;;;;;;5086101;28;20102;-62
2023/01/09 10:49:22;;;;;;;158.75;105.60;;;282.30;2278.40;;;;;;5086702;28;20485;-63
2023/01/09 10:51:51;;;;;;;169.32;109.93;;;282.40;2278.40;;;;;;5088327;28;20024;-63
2023/01/09 10:54:20;;;;;;;190.30;134.40;;;307.30;2304.00;;;;;;5086297;28;20031;-63
2023/01/09 10:56:59;;;;;;;242.85;167.18;;;307.40;2304.00;;;;;;5089311;28;20028;-63
2023/01/09 10:59:25;;;;;;;157.30;108.57;;;307.50;2304.00;;;;;;5088759;28;20027;-63
2023/01/09 11:01:52;;;;;;;67.05;48.60;;;307.60;2304.00;;;;;;5089547;28;20038;-63
2023/01/09 11:04:36;;;;;;;78.18;55.33;;;307.40;2304.00;;;;;;5089296;28;20032;-63
2023/01/09 11:07:04;;;;;;;64.82;46.05;;;307.40;2304.00;;;;;;5089253;28;20036;-63
2023/01/09 11:09:58;;;;;;;54.45;38.78;;;307.60;2304.00;;;;;;5089086;28;20028;-62
2023/01/09 11:12:32;;;;;;;123.22;80.50;;;307.50;2304.00;;;;;;5088662;28;20115;-63
2023/01/09 11:15:27;;;;;;;47.95;36.03;;;307.60;2304.00;;;;;;5089157;28;20031;-63
2023/01/09 11:17:55;;;;;;;312.27;175.52;;;307.50;2304.00;;;;;;5089094;28;20050;-63
2023/01/09 11:20:21;;;;;;;55.47;38.83;;;307.70;2304.00;;;;;;5089008;28;20024;-62
2023/01/09 11:22:49;;;;;;;350.10;199.48;;;307.50;2304.00;;;;;;5088666;28;20123;-63
2023/01/09 11:25:20;;;;;;;90.32;60.13;;;307.70;2304.00;;;;;;5088216;28;20020;-63
2023/01/09 11:28:00;;;;;;;50.10;31.98;;;307.50;2304.00;;;;;;5088650;28;20481;-63
2023/01/09 11:30:27;;;;;;;102.07;65.50;;;307.50;2304.00;;;;;;5088603;28;20028;-62
2023/01/09 11:32:57;;;;;;;155.35;98.60;;;307.80;2304.00;;;;;;5089110;28;20687;-63
2023/01/09 11:35:26;;;;;;;84.47;57.28;;;307.80;2304.00;;;;;;5088583;28;20070;-63
2023/01/09 11:38:11;;;;;;;110.20;70.97;;;307.80;2304.00;;;;;;5088265;28;20028;-62
2023/01/09 11:40:46;;;;;;;106.25;69.15;;;307.90;2304.00;;;;;;5088157;28;20562;-61
2023/01/09 11:43:14;;;;;;;115.35;74.35;;;307.80;2304.00;;;;;;5088926;28;20380;-62
2023/01/09 11:45:51;;;;;;;117.55;78.85;;;307.80;2304.00;;;;;;5088619;28;20075;-63
2023/01/09 11:48:52;;;;;;;93.43;59.83;;;307.90;2304.00;;;;;;5088405;28;20036;-63
2023/01/09 11:51:24;;;;;;;114.32;71.60;;;307.90;2304.00;;;;;;5082837;28;20384;-62
2023/01/09 11:54:12;;;;;;;91.93;57.63;;;308.00;2304.00;;;;;;5088181;28;20020;-63
2023/01/09 11:56:38;;;;;;;99.35;62.85;;;332.80;2329.60;;;;;;5088311;28;20027;-62
2023/01/09 11:59:12;;;;;;;94.82;58.20;;;332.90;2329.60;;;;;;5088474;28;20389;-62
2023/01/09 12:01:56;;;;;;;61.25;39.70;;;333.20;2329.60;;;;;;5088122;28;20378;-62
2023/01/09 12:04:57;;;;;;;98.32;63.72;;;333.20;2329.60;;;;;;5088299;28;20032;-62
2023/01/09 12:07:53;;;;;;;93.55;62.20;;;333.20;2329.60;;;;;;5005056;28;20042;-63
2023/01/09 12:10:46;;;;;;;100.63;60.10;;;333.20;2329.60;;;;;;5000102;28;20033;-62
2023/01/09 12:13:35;;;;;;;151.18;97.03;;;332.90;2329.60;;;;;;5004873;28;20076;-62
2023/01/09 12:16:03;;;;;;;193.90;134.25;;;333.10;2329.60;;;;;;5000333;28;20037;-61
2023/01/09 12:18:44;;;;;;;83.00;46.80;;;333.30;2329.60;;;;;;5004533;28;20120;-60
2023/01/09 12:21:12;;;;;;;107.38;65.13;;;333.20;2329.60;;;;;;5004633;28;20112;-62
2023/01/09 12:24:23;;;;;;;84.00;50.85;;;333.20;2329.60;;;;;;5004616;28;20046;-61